Time;durP1;ratioP1;P1;durP2;ratioP2;P2;SDS_P1;SDS_P2;PMS_P1;PMS_P2;Temp;Humidity;BMP_temperature;BMP_pressure;BME280_temperature;BME280_humidity;BME280_pressure;Samples;Min_cycle;Max_cycle;Signal;HPM_P1;HPM_P2
2021/07/11 00:01:54;;;;;;;29.90;18.80;;;;;;;24.47;66.64;99929.38;5012997;28;20073;-70
2021/07/11 00:04:21;;;;;;;23.25;17.40;;;;;;;24.43;66.74;99930.59;5015304;28;20119;-68
2021/07/11 00:06:46;;;;;;;26.35;17.80;;;;;;;24.36;66.62;99914.19;4949282;28;20042;-69
2021/07/11 00:09:12;;;;;;;21.15;16.63;;;;;;;24.38;66.63;99928.28;5014186;28;20038;-68
2021/07/11 00:11:38;;;;;;;26.77;17.42;;;;;;;24.32;66.79;99930.59;5015130;28;20418;-66
2021/07/11 00:14:04;;;;;;;24.00;16.90;;;;;;;24.31;66.92;99926.22;4964458;28;20089;-69
2021/07/11 00:16:32;;;;;;;28.20;18.45;;;;;;;24.29;66.76;99931.69;5014195;28;20056;-68
2021/07/11 00:18:57;;;;;;;35.70;20.23;;;;;;;24.30;66.50;99932.53;5015156;28;20073;-68
2021/07/11 00:21:23;;;;;;;36.40;23.10;;;;;;;24.22;66.38;99917.06;5014312;28;20073;-68
2021/07/11 00:23:50;;;;;;;40.25;24.33;;;;;;;24.23;66.27;99923.25;4949659;28;20084;-66
2021/07/11 00:26:16;;;;;;;39.30;21.00;;;;;;;24.26;66.40;99931.03;4949418;28;20042;-68
2021/07/11 00:28:42;;;;;;;31.75;17.95;;;;;;;24.24;65.91;99930.31;4947971;28;20096;-68
2021/07/11 00:31:08;;;;;;;35.53;21.25;;;;;;;24.15;65.91;99920.34;5014388;28;20053;-67
2021/07/11 00:33:34;;;;;;;30.90;20.23;;;;;;;24.22;66.11;99932.25;4997097;28;20570;-68
2021/07/11 00:36:00;;;;;;;31.65;18.35;;;;;;;24.19;66.12;99933.34;4981072;28;20046;-67
2021/07/11 00:38:25;;;;;;;28.50;17.35;;;;;;;24.18;66.43;99936.97;4980411;28;20415;-68
2021/07/11 00:40:52;;;;;;;34.08;18.35;;;;;;;24.16;66.29;99938.06;4997291;28;20388;-67
2021/07/11 00:43:18;;;;;;;36.00;19.05;;;;;;;24.08;66.07;99925.31;4996915;28;20056;-70
2021/07/11 00:45:44;;;;;;;28.63;17.75;;;;;;;24.07;65.76;99923.59;4964555;28;20052;-68
2021/07/11 00:48:09;;;;;;;29.23;17.85;;;;;;;24.14;65.81;99937.34;4996059;28;20042;-68
2021/07/11 00:50:37;;;;;;;24.95;17.20;;;;;;;24.08;65.59;99927.97;4980606;28;20045;-69
2021/07/11 00:53:12;;;;;;;31.05;18.17;;;;;;;24.15;65.63;99942.56;4950795;28;20052;-69
2021/07/11 00:55:40;;;;;;;28.88;18.10;;;;;;;24.13;65.57;99932.97;4997090;28;20037;-64
2021/07/11 00:58:07;;;;;;;27.38;17.38;;;;;;;24.07;66.12;99928.94;4981208;28;20414;-66
2021/07/11 01:00:44;;;;;;;24.60;17.15;;;;;;;24.09;65.92;99935.88;4996157;28;20049;-75
2021/07/11 01:03:20;;;;;;;25.65;17.05;;;;;;;24.11;65.29;99941.09;4979574;28;20184;-68
2021/07/11 01:05:49;;;;;;;24.52;15.55;;;;;;;24.26;65.24;99941.72;4979862;28;20054;-69
2021/07/11 01:08:19;;;;;;;22.80;15.25;;;;;;;24.32;64.64;99938.63;4979690;28;20519;-69
2021/07/11 01:10:58;;;;;;;22.60;14.70;;;;;;;24.34;64.14;99926.81;4965938;28;20039;-69
2021/07/11 01:13:25;;;;;;;20.20;15.75;;;;;;;24.46;64.27;99945.56;4989837;28;20625;-70
2021/07/11 01:15:58;;;;;;;19.55;15.18;;;;;;;24.48;63.85;99938.25;4998534;28;20080;-69
2021/07/11 01:18:25;;;;;;;20.15;15.88;;;;;;;24.73;63.01;99938.06;4967352;28;20419;-70
2021/07/11 01:21:12;;;;;;;22.70;15.73;;;;;;;24.79;63.13;99950.09;4998785;28;20203;-70
2021/07/11 01:23:59;;;;;;;18.88;15.25;;;;;;;24.70;63.07;99949.00;4997874;28;20053;-71
2021/07/11 01:26:26;;;;;;;20.40;16.00;;;;;;;24.78;62.77;99957.25;4999031;28;20076;-70
2021/07/11 01:29:00;;;;;;;23.88;15.02;;;;;;;24.84;62.38;99950.56;4975351;28;20036;-69
2021/07/11 01:31:29;;;;;;;20.83;16.58;;;;;;;24.96;62.37;99953.09;5034364;28;20041;-70
2021/07/11 01:33:56;;;;;;;23.55;17.05;;;;;;;24.89;62.36;99957.25;5019394;28;20091;-69
2021/07/11 01:36:25;;;;;;;29.50;18.35;;;;;;;24.86;62.74;99962.84;5018467;28;20056;-72
2021/07/11 01:38:52;;;;;;;29.55;18.08;;;;;;;24.85;62.56;99937.06;4986864;28;20071;-70
2021/07/11 01:41:25;;;;;;;31.13;18.75;;;;;;;24.81;62.20;99945.47;5053304;28;20043;-71
2021/07/11 01:43:53;;;;;;;30.15;18.60;;;;;;;24.64;62.97;99944.97;5002843;28;20131;-70
2021/07/11 01:46:20;;;;;;;35.47;19.00;;;;;;;24.76;62.62;99947.66;5034917;28;20040;-70
2021/07/11 01:48:46;;;;;;;27.67;18.08;;;;;;;24.69;62.24;99952.66;5036671;28;20098;-70
2021/07/11 01:51:12;;;;;;;38.83;20.98;;;;;;;24.68;62.45;99953.63;5002785;28;20136;-68
2021/07/11 01:53:41;;;;;;;33.85;19.58;;;;;;;24.77;61.88;99952.03;5018070;28;20049;-70
2021/07/11 01:56:08;;;;;;;27.52;18.45;;;;;;;24.63;62.80;99959.34;5053866;28;20045;-70
2021/07/11 01:58:45;;;;;;;26.70;17.50;;;;;;;24.53;63.34;99950.34;5038187;28;20041;-68
2021/07/11 02:01:16;;;;;;;28.38;17.23;;;;;;;24.46;63.11;99950.91;5036325;28;20037;-69
2021/07/11 02:03:41;;;;;;;32.92;17.67;;;;;;;24.37;63.61;99944.44;4985486;28;20144;-69
2021/07/11 02:06:11;;;;;;;28.13;17.67;;;;;;;24.61;62.90;99966.63;5033800;28;20583;-70
2021/07/11 02:08:42;;;;;;;25.63;17.30;;;;;;;24.62;62.64;99956.78;5001626;28;20041;-70
2021/07/11 02:11:14;;;;;;;34.37;19.20;;;;;;;24.65;62.76;99960.06;5034152;28;20048;-69
2021/07/11 02:14:34;;;;;;;27.52;18.77;;;;;;;24.42;63.66;99962.81;5005738;28;20139;-70
2021/07/11 02:17:10;;;;;;;31.23;18.33;;;;;;;24.39;63.71;99958.56;5032359;28;20055;-68
2021/07/11 02:19:50;;;;;;;29.38;18.23;;;;;;;24.27;63.64;99944.31;5020055;28;20044;-70
2021/07/11 02:22:16;;;;;;;27.67;18.13;;;;;;;24.20;64.09;99959.09;5051064;28;20445;-71
2021/07/11 02:24:44;;;;;;;29.08;17.95;;;;;;;24.26;64.08;99958.63;5000519;28;20080;-71
2021/07/11 02:27:18;;;;;;;24.67;16.58;;;;;;;24.18;64.09;99962.84;5034681;28;20090;-70
2021/07/11 02:29:46;;;;;;;25.88;15.95;;;;;;;24.27;63.36;99962.19;5000516;28;20033;-70
2021/07/11 02:32:14;;;;;;;26.17;17.25;;;;;;;24.49;62.78;99961.34;5034004;28;20045;-71
2021/07/11 02:34:43;;;;;;;25.20;17.45;;;;;;;24.42;63.06;99957.47;5017015;28;20521;-70
2021/07/11 02:37:13;;;;;;;25.13;18.05;;;;;;;24.18;62.94;99923.63;5001449;28;20139;-70
2021/07/11 02:39:44;;;;;;;29.60;18.75;;;;;;;24.55;62.04;99964.44;5033696;28;20048;-68
2021/07/11 02:42:13;;;;;;;28.88;18.27;;;;;;;24.64;62.07;99950.34;5018674;28;20529;-70
2021/07/11 02:44:45;;;;;;;30.23;18.42;;;;;;;24.52;62.06;99945.06;5017603;28;20076;-70
2021/07/11 02:47:15;;;;;;;29.25;20.08;;;;;;;24.65;61.81;99962.72;5001258;28;20052;-70
2021/07/11 02:49:50;;;;;;;40.25;20.92;;;;;;;24.73;61.71;99956.78;5052493;28;20052;-70
2021/07/11 02:52:18;;;;;;;33.53;18.88;;;;;;;24.74;60.75;99947.78;4999884;28;20045;-69
2021/07/11 02:54:50;;;;;;;30.02;18.88;;;;;;;24.64;61.27;99970.88;5000008;28;20441;-69
2021/07/11 02:57:19;;;;;;;31.75;19.00;;;;;;;25.07;60.18;99967.47;5000509;28;20516;-69
2021/07/11 02:59:48;;;;;;;27.30;18.40;;;;;;;25.63;58.00;99961.03;4999885;28;20452;-72
2021/07/11 03:02:15;;;;;;;30.73;18.17;;;;;;;25.37;58.04;99956.97;5000210;28;20106;-69
2021/07/11 03:04:44;;;;;;;30.55;17.05;;;;;;;25.33;58.38;99963.56;5032534;28;20048;-69
2021/07/11 03:07:12;;;;;;;25.02;16.92;;;;;;;25.26;57.22;99952.47;5017091;28;20417;-70
2021/07/11 03:09:41;;;;;;;30.48;17.75;;;;;;;25.15;58.55;99968.56;5016313;28;20136;-69
2021/07/11 03:12:10;;;;;;;27.92;18.50;;;;;;;25.10;58.38;99968.09;5016640;28;20123;-70
2021/07/11 03:14:38;;;;;;;29.38;18.98;;;;;;;25.28;58.34;99966.63;5016872;28;20040;-70
2021/07/11 03:17:07;;;;;;;29.48;18.15;;;;;;;25.23;58.35;99968.78;4985041;28;20561;-69
2021/07/11 03:19:38;;;;;;;31.20;18.02;;;;;;;25.38;57.94;99972.06;5050764;28;20040;-70
2021/07/11 03:22:08;;;;;;;24.35;18.50;;;;;;;25.52;57.34;99963.75;5031877;28;20050;-70
2021/07/11 03:24:37;;;;;;;25.33;15.75;;;;;;;25.57;57.43;99961.53;4994017;28;20057;-71
2021/07/11 03:27:05;;;;;;;21.30;16.50;;;;;;;25.80;56.16;99966.84;5010022;28;20052;-69
2021/07/11 03:30:01;;;;;;;23.48;17.38;;;;;;;26.74;52.98;99969.47;5010936;28;20133;-69
2021/07/11 03:32:29;;;;;;;25.17;16.48;;;;;;;27.59;51.06;99954.78;5007604;28;20111;-69
2021/07/11 03:34:56;;;;;;;27.80;16.75;;;;;;;27.59;50.48;99962.84;4976255;28;20073;-69
2021/07/11 03:37:25;;;;;;;27.33;16.77;;;;;;;27.22;51.14;99963.47;5007651;28;20037;-69
2021/07/11 03:39:52;;;;;;;26.55;17.35;;;;;;;26.92;52.29;99967.03;4992521;28;20049;-69
2021/07/11 03:42:26;;;;;;;26.83;16.35;;;;;;;26.88;51.72;99963.75;4992512;28;20041;-69
2021/07/11 03:44:58;;;;;;;21.65;14.32;;;;;;;26.88;51.06;99966.44;5009868;28;20050;-70
2021/07/11 03:47:27;;;;;;;22.02;14.77;;;;;;;27.41;50.20;99958.13;5011081;28;20458;-68
2021/07/11 03:49:54;;;;;;;17.63;13.60;;;;;;;27.22;49.94;99961.63;5009701;28;20490;-71
2021/07/11 03:52:25;;;;;;;21.10;15.25;;;;;;;26.90;49.90;99952.88;5010267;28;20058;-66
2021/07/11 03:54:51;;;;;;;22.27;15.52;;;;;;;26.72;50.99;99946.44;4992511;28;20046;-68
2021/07/11 03:57:17;;;;;;;26.20;17.55;;;;;;;26.55;52.27;99953.28;5011508;28;20073;-70
2021/07/11 03:59:44;;;;;;;27.33;17.52;;;;;;;26.64;51.92;99962.34;4977378;28;20581;-69
2021/07/11 04:02:10;;;;;;;27.30;16.63;;;;;;;27.98;48.69;99956.50;4977208;28;20053;-70
2021/07/11 04:04:37;;;;;;;27.38;17.65;;;;;;;29.47;44.76;99967.38;4960965;28;20049;-70
2021/07/11 04:07:03;;;;;;;26.95;16.55;;;;;;;30.18;43.11;99978.19;4993145;28;20042;-70
2021/07/11 04:09:29;;;;;;;21.92;14.45;;;;;;;30.53;41.51;99978.13;5011443;28;20084;-70
2021/07/11 04:11:55;;;;;;;22.10;13.70;;;;;;;30.87;41.31;99969.22;4975961;28;20077;-70
2021/07/11 04:14:22;;;;;;;17.13;12.48;;;;;;;31.40;39.31;99958.13;5009649;28;20046;-70
2021/07/11 04:16:53;;;;;;;16.08;11.88;;;;;;;30.19;41.79;99960.97;5009518;28;20049;-71
2021/07/11 04:19:21;;;;;;;;;;;;;;;30.23;41.80;99971.31;4978178;28;20046;-70
2021/07/11 04:21:49;;;;;;;25.00;12.60;;;;;;;30.28;41.93;99968.13;5008357;28;20414;-69
2021/07/11 04:24:15;;;;;;;14.55;11.10;;;;;;;30.09;41.83;99961.09;5016946;28;20045;-71
2021/07/11 04:26:44;;;;;;;23.85;12.95;;;;;;;30.25;42.38;99973.84;5029971;28;20037;-70
2021/07/11 04:29:11;;;;;;;19.00;12.50;;;;;;;31.26;40.04;99964.19;5027756;28;20053;-71
2021/07/11 04:31:37;;;;;;;27.42;13.82;;;;;;;31.51;39.38;99978.59;5029582;28;20165;-70
2021/07/11 04:34:30;;;;;;;17.45;10.75;;;;;;;32.38;36.45;99969.91;5029890;28;20527;-70
2021/07/11 04:36:58;;;;;;;16.17;11.25;;;;;;;32.73;36.25;99971.38;4991874;28;20137;-72
2021/07/11 04:39:24;;;;;;;12.18;9.60;;;;;;;33.17;34.86;99982.56;4990063;28;20471;-69
2021/07/11 04:41:51;;;;;;;11.38;9.40;;;;;;;33.49;33.71;99980.75;4941619;28;20038;-69
2021/07/11 04:44:17;;;;;;;10.65;9.10;;;;;;;33.89;32.77;99973.38;4972123;28;20096;-71
2021/07/11 04:46:43;;;;;;;10.50;8.45;;;;;;;34.56;31.89;99992.50;4989207;28;20386;-70
2021/07/11 04:49:09;;;;;;;11.07;8.70;;;;;;;34.42;31.98;99986.03;4993640;28;20117;-71
2021/07/11 04:51:35;;;;;;;20.55;9.52;;;;;;;34.52;32.28;99983.88;4958239;28;20134;-69
2021/07/11 04:54:04;;;;;;;25.85;10.02;;;;;;;34.48;31.49;99984.44;4992899;28;20435;-69
2021/07/11 04:56:30;;;;;;;31.15;9.82;;;;;;;34.95;31.53;100003.19;4991749;28;20050;-71
2021/07/11 04:58:56;;;;;;;27.15;9.40;;;;;;;35.13;30.38;99989.19;4994274;28;20079;-70
2021/07/11 05:01:22;;;;;;;27.80;9.00;;;;;;;35.56;29.73;99988.25;4944297;28;20120;-70
2021/07/11 05:03:48;;;;;;;20.00;8.43;;;;;;;35.61;29.45;99976.78;4993456;28;20607;-70
2021/07/11 05:06:14;;;;;;;21.42;8.88;;;;;;;35.84;28.92;99982.09;4994056;28;20126;-73
2021/07/11 05:08:40;;;;;;;20.15;8.25;;;;;;;36.59;27.66;99989.69;4994753;28;20504;-70
2021/07/11 05:11:05;;;;;;;20.17;8.73;;;;;;;36.18;28.55;99984.09;4994153;28;20046;-71
2021/07/11 05:13:31;;;;;;;32.65;8.10;;;;;;;36.27;27.14;99991.91;4959694;28;20054;-70
2021/07/11 05:15:57;;;;;;;19.15;7.47;;;;;;;36.80;27.46;100000.56;4994340;28;20046;-71
2021/07/11 05:18:23;;;;;;;23.92;7.70;;;;;;;36.73;26.95;99991.47;4959652;28;20038;-68
2021/07/11 05:20:48;;;;;;;28.02;8.35;;;;;;;37.44;25.26;99992.06;4942958;28;20042;-70
2021/07/11 05:23:14;;;;;;;23.15;7.70;;;;;;;37.53;25.39;99990.00;4990375;28;20073;-69
2021/07/11 05:25:40;;;;;;;21.60;7.75;;;;;;;37.56;24.86;99994.22;4993191;28;20121;-71
2021/07/11 05:28:06;;;;;;;9.80;7.13;;;;;;;38.06;24.59;99996.44;4992899;28;20491;-71
2021/07/11 05:30:31;;;;;;;16.20;7.50;;;;;;;38.20;23.95;99985.56;5009851;28;20038;-67
2021/07/11 05:32:57;;;;;;;12.93;7.43;;;;;;;38.58;23.62;99994.75;5009152;28;20148;-71
2021/07/11 05:35:23;;;;;;;16.83;7.00;;;;;;;38.43;23.74;99989.53;4975964;28;20048;-69
2021/07/11 05:37:49;;;;;;;13.65;6.05;;;;;;;38.08;23.22;99988.88;4993412;28;20054;-71
2021/07/11 05:40:17;;;;;;;14.23;6.57;;;;;;;38.35;22.55;99989.75;5012246;28;20069;-70
2021/07/11 05:42:43;;;;;;;23.27;6.95;;;;;;;38.36;23.15;99991.44;4962491;28;20132;-70
2021/07/11 05:45:10;;;;;;;21.92;6.85;;;;;;;38.85;22.86;100005.72;4993366;28;20173;-70
2021/07/11 05:47:37;;;;;;;23.23;6.72;;;;;;;38.56;22.28;100002.34;4975621;28;20045;-69
2021/07/11 05:50:07;;;;;;;18.33;6.82;;;;;;;38.54;22.59;99990.78;4958812;28;20152;-69
2021/07/11 05:52:33;;;;;;;26.83;6.70;;;;;;;39.02;22.39;100004.19;5009235;28;20077;-70
2021/07/11 05:54:59;;;;;;;11.85;6.47;;;;;;;39.18;21.82;100006.47;5011856;28;20088;-68
2021/07/11 05:57:27;;;;;;;20.35;6.82;;;;;;;39.25;22.23;100010.00;5010484;28;20059;-70
2021/07/11 05:59:53;;;;;;;27.85;7.05;;;;;;;39.55;21.46;100013.09;4993540;28;20431;-69
2021/07/11 06:02:18;;;;;;;20.63;6.47;;;;;;;40.25;20.95;100002.09;4978030;28;20529;-70
2021/07/11 06:04:44;;;;;;;22.75;6.18;;;;;;;39.33;20.24;100007.03;4994440;28;20048;-71
2021/07/11 06:07:10;;;;;;;21.33;6.53;;;;;;;39.17;20.66;100004.78;5012721;28;20046;-70
2021/07/11 06:09:35;;;;;;;20.88;6.32;;;;;;;39.24;20.71;99993.81;5011805;28;20454;-72
2021/07/11 06:12:01;;;;;;;21.52;6.32;;;;;;;39.26;20.96;100008.97;5010088;28;20046;-71
2021/07/11 06:14:27;;;;;;;27.02;6.05;;;;;;;39.82;20.72;100001.97;5010043;28;20340;-70
2021/07/11 06:16:53;;;;;;;14.02;5.00;;;;;;;40.15;20.16;100002.59;5009683;28;20643;-69
2021/07/11 06:19:18;;;;;;;12.75;4.60;;;;;;;40.59;20.02;100004.34;5011735;28;20436;-71
2021/07/11 06:21:44;;;;;;;17.10;5.78;;;;;;;40.18;19.56;100001.31;4943535;28;20050;-71
2021/07/11 06:24:10;;;;;;;19.17;4.75;;;;;;;40.20;20.28;99988.22;5010568;28;20058;-71
2021/07/11 06:26:36;;;;;;;12.63;4.10;;;;;;;40.27;19.06;99997.22;5009700;28;20045;-71
2021/07/11 06:29:02;;;;;;;11.15;4.00;;;;;;;40.95;18.63;99997.25;4976232;28;20060;-70
2021/07/11 06:31:28;;;;;;;8.38;3.60;;;;;;;41.56;18.66;100001.75;5010551;28;20047;-71
2021/07/11 06:33:53;;;;;;;4.95;2.83;;;;;;;40.59;17.39;99992.53;4977620;28;20046;-70
2021/07/11 06:36:19;;;;;;;7.85;2.85;;;;;;;40.73;17.39;99998.72;4976162;28;20057;-71
2021/07/11 06:38:45;;;;;;;5.00;2.45;;;;;;;40.30;14.92;99996.78;5010864;28;20052;-71
2021/07/11 06:41:11;;;;;;;2.40;2.20;;;;;;;39.60;16.49;99998.72;5009245;28;20042;-69
2021/07/11 06:43:36;;;;;;;6.88;3.00;;;;;;;39.46;17.59;99997.09;5008910;28;20050;-72
2021/07/11 06:46:02;;;;;;;3.17;2.70;;;;;;;39.40;17.37;100005.13;5009267;28;20478;-70
2021/07/11 06:48:28;;;;;;;11.77;3.63;;;;;;;38.77;19.68;99993.94;5009723;28;20119;-71
2021/07/11 06:50:55;;;;;;;7.95;3.80;;;;;;;39.68;19.03;99996.56;5009783;28;20394;-70
2021/07/11 06:53:20;;;;;;;5.57;3.78;;;;;;;39.42;18.57;99990.38;4991411;28;20136;-70
2021/07/11 06:55:46;;;;;;;9.63;3.88;;;;;;;39.41;18.79;100005.97;5010288;28;20132;-70
2021/07/11 06:58:12;;;;;;;15.65;4.68;;;;;;;38.99;20.03;100005.44;5009529;28;20042;-71
2021/07/11 07:00:38;;;;;;;13.23;4.85;;;;;;;39.01;20.32;100005.22;5009343;28;20165;-70
2021/07/11 07:03:04;;;;;;;9.45;4.68;;;;;;;39.55;20.48;99999.38;4992711;28;20041;-69
2021/07/11 07:05:30;;;;;;;6.80;4.50;;;;;;;40.34;19.32;99987.03;4965500;28;20045;-70
2021/07/11 07:07:55;;;;;;;7.65;4.13;;;;;;;40.25;18.92;99996.63;5009604;28;20175;-69
2021/07/11 07:10:23;;;;;;;11.52;4.60;;;;;;;40.18;19.30;99991.19;5011573;28;20060;-70
2021/07/11 07:12:50;;;;;;;4.85;3.95;;;;;;;40.31;19.73;99995.72;5008259;28;20128;-71
2021/07/11 07:15:16;;;;;;;10.60;3.97;;;;;;;40.95;18.85;99986.28;5024077;28;20089;-69
2021/07/11 07:17:42;;;;;;;12.52;4.82;;;;;;;41.03;18.52;99983.22;4958851;28;20084;-71
2021/07/11 07:20:10;;;;;;;7.95;4.00;;;;;;;41.33;18.74;99990.69;5010451;28;20055;-72
2021/07/11 07:22:37;;;;;;;8.75;4.15;;;;;;;40.88;19.10;99989.09;4993994;28;20167;-71
2021/07/11 07:25:04;;;;;;;9.40;4.53;;;;;;;40.05;19.62;99984.97;5001748;28;20068;-71
2021/07/11 07:27:30;;;;;;;6.65;4.30;;;;;;;39.32;19.21;99986.19;5007293;28;20037;-71
2021/07/11 07:29:56;;;;;;;4.20;3.80;;;;;;;40.21;18.33;99981.69;5026503;28;20099;-71
2021/07/11 07:32:21;;;;;;;5.28;3.80;;;;;;;40.24;19.40;99981.22;4998197;28;20045;-71
2021/07/11 07:34:47;;;;;;;10.00;3.90;;;;;;;39.70;18.64;99977.16;4958884;28;20037;-71
2021/07/11 07:37:14;;;;;;;11.07;3.90;;;;;;;39.63;18.97;99992.81;5006973;28;20635;-71
2021/07/11 07:39:40;;;;;;;5.22;3.60;;;;;;;38.71;19.89;99999.44;4983507;28;20140;-71
2021/07/11 07:42:06;;;;;;;5.05;3.80;;;;;;;39.38;19.54;99990.78;5013059;28;20554;-74
2021/07/11 07:44:33;;;;;;;5.25;3.60;;;;;;;38.52;20.40;99979.22;5017637;28;20042;-69
2021/07/11 07:46:59;;;;;;;4.97;3.90;;;;;;;38.81;20.48;99993.50;5010609;28;20037;-72
2021/07/11 07:49:25;;;;;;;4.80;4.30;;;;;;;37.99;21.69;99979.22;5018919;28;20073;-70
2021/07/11 07:51:51;;;;;;;9.60;4.20;;;;;;;38.55;21.00;99978.78;5013062;28;20100;-69
2021/07/11 07:54:16;;;;;;;5.55;4.22;;;;;;;39.20;20.16;99976.97;5018792;28;20116;-70
2021/07/11 07:56:42;;;;;;;4.75;4.28;;;;;;;38.88;21.09;99967.81;4991792;28;20040;-70
2021/07/11 07:59:08;;;;;;;9.93;5.20;;;;;;;39.31;20.18;99979.03;5013240;28;20057;-71
2021/07/11 08:01:34;;;;;;;8.20;5.30;;;;;;;40.09;18.82;99986.19;5007425;28;20045;-69
2021/07/11 08:04:00;;;;;;;5.40;4.30;;;;;;;38.89;20.25;99983.19;5025979;28;20052;-71
2021/07/11 08:06:25;;;;;;;5.07;4.20;;;;;;;37.94;21.66;99957.16;5023522;28;20102;-69
2021/07/11 08:08:51;;;;;;;7.50;4.35;;;;;;;38.93;20.81;99975.38;5022238;28;20038;-70
2021/07/11 08:11:17;;;;;;;9.85;4.00;;;;;;;39.00;20.05;99987.13;5012275;28;20058;-70
2021/07/11 08:13:44;;;;;;;8.43;4.00;;;;;;;39.04;21.07;99977.44;5012100;28;20413;-68
2021/07/11 08:16:10;;;;;;;8.88;3.92;;;;;;;37.72;22.01;99978.31;5021485;28;20045;-69
2021/07/11 08:18:36;;;;;;;8.63;3.70;;;;;;;37.69;22.13;99964.19;5014406;28;20123;-69
2021/07/11 08:21:04;;;;;;;5.20;3.60;;;;;;;37.53;21.68;99985.38;5023537;28;20495;-70
2021/07/11 08:23:33;;;;;;;4.97;3.72;;;;;;;37.09;22.12;99976.78;4997345;28;20135;-69
2021/07/11 08:25:59;;;;;;;8.85;4.15;;;;;;;37.49;21.39;99977.81;5006291;28;20042;-71
2021/07/11 08:28:25;;;;;;;6.07;3.50;;;;;;;37.57;20.97;99963.13;4998919;28;20044;-71
2021/07/11 08:30:51;;;;;;;8.23;3.88;;;;;;;37.50;20.91;99977.59;4974944;28;20045;-70
2021/07/11 08:33:17;;;;;;;4.82;3.40;;;;;;;37.26;21.42;99960.94;4978450;28;20072;-70
2021/07/11 08:35:43;;;;;;;9.63;4.03;;;;;;;36.75;21.98;99953.09;4993494;28;20049;-71
2021/07/11 08:38:09;;;;;;;12.63;4.35;;;;;;;36.54;22.68;99949.41;4959035;28;20394;-70
2021/07/11 08:40:35;;;;;;;4.68;4.28;;;;;;;36.63;22.76;99950.09;5009171;28;20050;-72
2021/07/11 08:43:09;;;;;;;10.13;4.80;;;;;;;36.18;22.48;99952.25;5008667;28;20056;-69
2021/07/11 08:45:35;;;;;;;4.60;4.20;;;;;;;36.12;23.22;99955.75;4974393;28;20072;-70
2021/07/11 08:48:02;;;;;;;5.13;4.60;;;;;;;36.51;23.78;99948.97;5008641;28;20526;-71
2021/07/11 08:50:32;;;;;;;8.18;4.75;;;;;;;36.14;24.10;99945.50;5010093;28;20041;-73
2021/07/11 08:52:58;;;;;;;6.65;5.32;;;;;;;35.91;24.60;99939.44;5008864;28;20119;-71
2021/07/11 08:55:25;;;;;;;11.02;5.57;;;;;;;36.37;23.73;99939.00;4991882;28;20045;-72
2021/07/11 08:57:57;;;;;;;7.80;5.00;;;;;;;37.00;23.16;99942.53;4992397;28;20049;-69
2021/07/11 09:00:43;;;;;;;8.55;4.82;;;;;;;36.70;22.78;99950.97;4975645;28;20053;-72
2021/07/11 09:03:09;;;;;;;9.63;5.30;;;;;;;36.66;23.59;99957.84;4992095;28;20038;-70
2021/07/11 09:05:39;;;;;;;9.95;4.97;;;;;;;36.28;23.24;99951.88;4992398;28;20419;-70
2021/07/11 09:08:22;;;;;;;7.90;4.77;;;;;;;35.71;23.91;99936.50;5010861;28;20172;-72
2021/07/11 09:10:49;;;;;;;8.40;4.45;;;;;;;35.91;23.92;99939.44;5010488;28;20285;-70
2021/07/11 09:13:18;;;;;;;7.25;5.10;;;;;;;35.00;25.50;99958.06;5010560;28;20476;-70
2021/07/11 09:15:47;;;;;;;5.85;4.70;;;;;;;35.04;25.43;99934.06;4974916;28;20049;-70
2021/07/11 09:18:25;;;;;;;8.82;5.22;;;;;;;34.72;26.68;99948.84;4975933;28;20034;-72
2021/07/11 09:20:56;;;;;;;8.00;5.13;;;;;;;34.42;26.62;99937.97;5010055;28;20156;-70
2021/07/11 09:23:24;;;;;;;30.00;18.70;;;;;;;34.45;26.68;99941.34;5009822;28;20050;-71
2021/07/11 09:26:07;;;;;;;11.05;5.43;;;;;;;34.29;27.65;99943.19;5010034;28;20487;-72
2021/07/11 09:28:36;;;;;;;7.97;5.38;;;;;;;32.96;29.23;99959.81;4975775;28;20041;-72
2021/07/11 09:31:03;;;;;;;7.60;5.55;;;;;;;32.52;30.65;99942.13;4993798;28;20049;-72
2021/07/11 09:33:30;;;;;;;10.48;5.32;;;;;;;32.42;30.36;99951.44;5010196;28;20042;-68
2021/07/11 09:36:17;;;;;;;12.75;5.75;;;;;;;32.26;30.88;99930.66;4975419;28;20050;-73
2021/07/11 09:38:54;;;;;;;12.73;6.55;;;;;;;32.23;30.94;99931.81;5010896;28;20062;-72
2021/07/11 09:41:22;;;;;;;7.00;5.70;;;;;;;32.17;30.76;99953.31;5011549;28;20141;-71
2021/07/11 09:43:48;;;;;;;14.93;5.18;;;;;;;31.97;30.66;99938.44;5009959;28;20045;-70
2021/07/11 09:46:15;;;;;;;12.50;5.70;;;;;;;32.18;31.51;99942.31;5010698;28;20041;-71
2021/07/11 09:48:41;;;;;;;7.43;4.95;;;;;;;32.30;31.60;99931.16;5008857;28;20096;-71
2021/07/11 09:51:33;;;;;;;8.18;5.25;;;;;;;32.68;30.53;99934.94;5007968;28;20042;-69
2021/07/11 09:54:09;;;;;;;7.30;5.22;;;;;;;32.33;30.30;99945.22;4986484;28;20104;-70
2021/07/11 09:56:44;;;;;;;6.65;4.97;;;;;;;32.06;30.91;99926.59;4991350;28;20400;-71
2021/07/11 09:59:12;;;;;;;6.47;5.50;;;;;;;32.20;30.43;99925.91;4988897;28;20073;-70
2021/07/11 10:01:43;;;;;;;5.78;5.18;;;;;;;32.10;30.71;99925.25;4942506;28;20038;-71
2021/07/11 10:04:10;;;;;;;5.68;5.07;;;;;;;32.33;30.55;99925.41;5006782;28;20041;-70
2021/07/11 10:06:36;;;;;;;6.13;5.10;;;;;;;32.34;30.04;99906.28;4974627;28;20079;-72
2021/07/11 10:09:08;;;;;;;9.02;5.10;;;;;;;32.67;30.68;99922.44;4975806;28;20054;-71
2021/07/11 10:11:34;;;;;;;7.95;4.38;;;;;;;32.53;30.70;99921.28;4990585;28;20045;-71
2021/07/11 10:14:00;;;;;;;11.60;6.57;;;;;;;32.80;30.79;99922.78;5009044;28;20136;-71
2021/07/11 10:16:27;;;;;;;6.38;5.07;;;;;;;32.91;29.59;99927.81;5009952;28;20456;-70
2021/07/11 10:19:01;;;;;;;6.30;4.78;;;;;;;32.60;28.81;99916.03;4992832;28;20048;-71
2021/07/11 10:21:31;;;;;;;7.57;5.20;;;;;;;32.84;29.29;99924.97;4976356;28;20042;-72
2021/07/11 10:23:57;;;;;;;11.55;5.00;;;;;;;32.40;29.49;99921.84;5008972;28;20622;-72
2021/07/11 10:26:35;;;;;;;7.68;4.53;;;;;;;32.02;29.95;99917.13;5008708;28;20124;-70
2021/07/11 10:29:19;;;;;;;5.10;4.28;;;;;;;31.91;29.92;99913.72;5009013;28;20046;-72
2021/07/11 10:31:55;;;;;;;7.07;5.35;;;;;;;31.56;30.77;99922.16;4974279;28;20183;-66
2021/07/11 10:34:25;;;;;;;12.70;6.22;;;;;;;31.59;30.48;99913.69;4990549;28;20041;-71
2021/07/11 10:36:51;;;;;;;11.65;4.68;;;;;;;31.58;29.82;99909.31;4973577;28;20521;-70
2021/07/11 10:39:17;;;;;;;4.70;4.30;;;;;;;31.44;29.85;99912.69;5007624;28;20042;-67
2021/07/11 10:41:53;;;;;;;7.20;4.60;;;;;;;31.55;30.00;99905.09;5009596;28;20155;-74
2021/07/11 10:44:24;;;;;;;5.43;4.30;;;;;;;31.75;30.02;99915.59;4991657;28;20436;-71
2021/07/11 10:47:02;;;;;;;5.63;4.60;;;;;;;31.52;30.24;99900.00;5009714;28;20045;-70
2021/07/11 10:49:34;;;;;;;9.40;4.95;;;;;;;31.54;30.99;99907.94;4959611;28;20077;-77
2021/07/11 10:52:06;;;;;;;12.80;5.18;;;;;;;31.70;30.54;99888.22;4975005;28;20062;-72
2021/07/11 10:54:35;;;;;;;11.38;5.05;;;;;;;31.89;29.93;99893.28;5009070;28;20041;-70
2021/07/11 10:57:07;;;;;;;5.18;4.78;;;;;;;32.04;29.80;99899.72;4976302;28;20041;-71
2021/07/11 10:59:35;;;;;;;7.88;4.85;;;;;;;32.25;29.38;99907.31;4957652;28;20184;-72
2021/07/11 11:02:16;;;;;;;9.52;5.10;;;;;;;32.36;28.79;99887.16;4944794;28;20046;-71
2021/07/11 11:04:44;;;;;;;6.93;5.20;;;;;;;32.50;28.78;99879.16;4974039;28;20038;-74
2021/07/11 11:07:17;;;;;;;12.88;5.05;;;;;;;32.53;29.40;99895.03;5005584;28;20045;-71
2021/07/11 11:09:47;;;;;;;8.57;5.47;;;;;;;32.43;30.01;99893.56;4958648;28;20073;-69
2021/07/11 11:12:27;;;;;;;8.13;5.05;;;;;;;32.24;29.64;99900.22;4991085;28;20495;-72
2021/07/11 11:14:59;;;;;;;15.43;5.07;;;;;;;31.81;29.88;99910.34;5007960;28;20119;-71
2021/07/11 11:17:29;;;;;;;9.68;4.45;;;;;;;31.67;29.97;99892.06;5007385;28;20046;-72
2021/07/11 11:19:55;;;;;;;13.88;4.65;;;;;;;31.53;30.24;99884.63;4973109;28;20136;-73
2021/07/11 11:22:21;;;;;;;6.15;4.50;;;;;;;31.63;29.72;99890.72;5008553;28;20037;-74
2021/07/11 11:24:47;;;;;;;7.63;4.63;;;;;;;31.75;30.45;99900.22;5008316;28;20057;-69
2021/07/11 11:27:13;;;;;;;7.88;4.55;;;;;;;31.98;29.75;99884.16;4989061;28;20052;-72
2021/07/11 11:29:39;;;;;;;14.77;10.88;;;;;;;32.20;29.19;99888.00;5007464;28;20467;-72
2021/07/11 11:32:14;;;;;;;11.18;9.77;;;;;;;32.34;29.08;99881.91;4992503;28;20054;-72